sensor_id;sensor_type;location;lat;lon;timestamp;temperature;humidity
16846;DHT22;8539;53.188;8.696;2023-06-26T00:01:03;20.40;99.90
16846;DHT22;8539;53.188;8.696;2023-06-26T00:03:33;20.40;99.90
16846;DHT22;8539;53.188;8.696;2023-06-26T00:05:59;20.40;99.90
16846;DHT22;8539;53.188;8.696;2023-06-26T00:08:27;20.40;99.90
16846;DHT22;8539;53.188;8.696;2023-06-26T00:10:53;20.30;99.90
16846;DHT22;8539;53.188;8.696;2023-06-26T00:13:28;20.30;99.90
16846;DHT22;8539;53.188;8.696;2023-06-26T00:15:54;20.30;99.90
16846;DHT22;8539;53.188;8.696;2023-06-26T00:18:21;20.20;99.90
16846;DHT22;8539;53.188;8.696;2023-06-26T00:20:47;20.20;99.90
16846;DHT22;8539;53.188;8.696;2023-06-26T00:23:15;20.20;99.90
16846;DHT22;8539;53.188;8.696;2023-06-26T00:25:43;20.20;99.90
16846;DHT22;8539;53.188;8.696;2023-06-26T00:28:09;20.20;99.90
16846;DHT22;8539;53.188;8.696;2023-06-26T00:30:35;20.20;99.90
16846;DHT22;8539;53.188;8.696;2023-06-26T00:33:01;20.20;99.90
16846;DHT22;8539;53.188;8.696;2023-06-26T00:35:27;20.20;99.90
16846;DHT22;8539;53.188;8.696;2023-06-26T00:37:54;20.20;99.90
16846;DHT22;8539;53.188;8.696;2023-06-26T00:40:22;20.20;99.90
16846;DHT22;8539;53.188;8.696;2023-06-26T00:42:49;20.20;99.90
16846;DHT22;8539;53.188;8.696;2023-06-26T00:45:16;20.20;99.90
16846;DHT22;8539;53.188;8.696;2023-06-26T00:47:42;20.20;99.90
16846;DHT22;8539;53.188;8.696;2023-06-26T00:50:09;20.20;99.90
16846;DHT22;8539;53.188;8.696;2023-06-26T00:52:36;20.10;99.90
16846;DHT22;8539;53.188;8.696;2023-06-26T00:55:03;20.20;99.90
16846;DHT22;8539;53.188;8.696;2023-06-26T00:57:30;20.20;99.90
16846;DHT22;8539;53.188;8.696;2023-06-26T00:59:57;20.20;99.90
16846;DHT22;8539;53.188;8.696;2023-06-26T01:02:23;20.30;99.90
16846;DHT22;8539;53.188;8.696;2023-06-26T01:04:50;20.30;99.90
16846;DHT22;8539;53.188;8.696;2023-06-26T01:07:18;20.30;99.90
16846;DHT22;8539;53.188;8.696;2023-06-26T01:09:48;20.30;99.90
16846;DHT22;8539;53.188;8.696;2023-06-26T01:12:17;20.30;99.90
16846;DHT22;8539;53.188;8.696;2023-06-26T01:14:43;20.30;99.90
16846;DHT22;8539;53.188;8.696;2023-06-26T01:17:13;20.30;99.90
16846;DHT22;8539;53.188;8.696;2023-06-26T01:19:51;20.20;99.90
16846;DHT22;8539;53.188;8.696;2023-06-26T01:27:49;20.10;99.90
16846;DHT22;8539;53.188;8.696;2023-06-26T01:30:16;20.00;99.90
16846;DHT22;8539;53.188;8.696;2023-06-26T01:32:48;20.00;99.90
16846;DHT22;8539;53.188;8.696;2023-06-26T01:35:15;19.90;99.90
16846;DHT22;8539;53.188;8.696;2023-06-26T01:37:41;19.90;99.90
16846;DHT22;8539;53.188;8.696;2023-06-26T01:40:08;19.80;99.90
16846;DHT22;8539;53.188;8.696;2023-06-26T01:42:35;19.80;99.90
16846;DHT22;8539;53.188;8.696;2023-06-26T01:45:10;19.70;99.90
16846;DHT22;8539;53.188;8.696;2023-06-26T01:47:38;19.70;99.90
16846;DHT22;8539;53.188;8.696;2023-06-26T01:50:17;19.60;99.90
16846;DHT22;8539;53.188;8.696;2023-06-26T01:53:13;19.60;99.90
16846;DHT22;8539;53.188;8.696;2023-06-26T01:55:55;19.50;99.90
16846;DHT22;8539;53.188;8.696;2023-06-26T01:58:32;19.50;99.90
16846;DHT22;8539;53.188;8.696;2023-06-26T02:01:14;19.50;99.90
16846;DHT22;8539;53.188;8.696;2023-06-26T02:07:37;19.40;99.90
16846;DHT22;8539;53.188;8.696;2023-06-26T02:10:17;19.40;99.90
16846;DHT22;8539;53.188;8.696;2023-06-26T02:13:04;19.30;99.90
16846;DHT22;8539;53.188;8.696;2023-06-26T02:15:38;19.30;99.90
16846;DHT22;8539;53.188;8.696;2023-06-26T02:18:07;19.30;99.90
16846;DHT22;8539;53.188;8.696;2023-06-26T02:20:34;19.30;99.90
16846;DHT22;8539;53.188;8.696;2023-06-26T02:23:00;19.30;99.90
16846;DHT22;8539;53.188;8.696;2023-06-26T02:25:26;19.20;99.90
16846;DHT22;8539;53.188;8.696;2023-06-26T02:27:52;19.30;99.90
16846;DHT22;8539;53.188;8.696;2023-06-26T02:30:20;19.30;99.90
16846;DHT22;8539;53.188;8.696;2023-06-26T02:32:47;19.30;99.90
16846;DHT22;8539;53.188;8.696;2023-06-26T02:35:13;19.30;99.90
16846;DHT22;8539;53.188;8.696;2023-06-26T02:37:39;19.40;99.90
16846;DHT22;8539;53.188;8.696;2023-06-26T02:40:05;19.40;99.90
16846;DHT22;8539;53.188;8.696;2023-06-26T02:42:34;19.40;99.90
16846;DHT22;8539;53.188;8.696;2023-06-26T02:45:00;19.40;99.90
16846;DHT22;8539;53.188;8.696;2023-06-26T02:47:27;19.50;99.90
16846;DHT22;8539;53.188;8.696;2023-06-26T02:49:53;19.40;99.90
16846;DHT22;8539;53.188;8.696;2023-06-26T02:52:19;19.40;99.90
16846;DHT22;8539;53.188;8.696;2023-06-26T02:54:45;19.40;99.90
16846;DHT22;8539;53.188;8.696;2023-06-26T02:57:12;19.40;99.90
16846;DHT22;8539;53.188;8.696;2023-06-26T02:59:40;19.30;99.90
16846;DHT22;8539;53.188;8.696;2023-06-26T03:02:06;19.30;99.90
16846;DHT22;8539;53.188;8.696;2023-06-26T03:04:33;19.30;99.90
16846;DHT22;8539;53.188;8.696;2023-06-26T03:07:03;19.20;99.90
16846;DHT22;8539;53.188;8.696;2023-06-26T03:09:32;19.20;99.90
16846;DHT22;8539;53.188;8.696;2023-06-26T03:11:58;19.20;99.90
16846;DHT22;8539;53.188;8.696;2023-06-26T03:14:24;19.20;99.90
16846;DHT22;8539;53.188;8.696;2023-06-26T03:16:52;19.20;99.90
16846;DHT22;8539;53.188;8.696;2023-06-26T03:19:21;19.20;99.90
16846;DHT22;8539;53.188;8.696;2023-06-26T03:21:47;19.20;99.90
16846;DHT22;8539;53.188;8.696;2023-06-26T03:24:14;19.20;99.90
16846;DHT22;8539;53.188;8.696;2023-06-26T03:26:40;19.20;99.90
16846;DHT22;8539;53.188;8.696;2023-06-26T03:29:06;19.20;99.90
16846;DHT22;8539;53.188;8.696;2023-06-26T03:31:33;19.20;99.90
16846;DHT22;8539;53.188;8.696;2023-06-26T03:33:59;19.20;99.90
16846;DHT22;8539;53.188;8.696;2023-06-26T03:36:25;19.20;99.90
16846;DHT22;8539;53.188;8.696;2023-06-26T03:38:53;19.20;99.90
16846;DHT22;8539;53.188;8.696;2023-06-26T03:41:23;19.20;99.90
16846;DHT22;8539;53.188;8.696;2023-06-26T03:43:49;19.10;99.90
16846;DHT22;8539;53.188;8.696;2023-06-26T03:46:16;19.20;99.90
16846;DHT22;8539;53.188;8.696;2023-06-26T03:48:42;18.90;99.90
16846;DHT22;8539;53.188;8.696;2023-06-26T03:51:08;19.20;99.90
16846;DHT22;8539;53.188;8.696;2023-06-26T03:53:34;19.20;99.90
16846;DHT22;8539;53.188;8.696;2023-06-26T03:56:01;19.20;99.90
16846;DHT22;8539;53.188;8.696;2023-06-26T03:58:27;19.30;99.90
16846;DHT22;8539;53.188;8.696;2023-06-26T04:00:53;19.30;99.90
16846;DHT22;8539;53.188;8.696;2023-06-26T04:03:21;19.40;99.90
16846;DHT22;8539;53.188;8.696;2023-06-26T04:05:47;19.40;99.90
16846;DHT22;8539;53.188;8.696;2023-06-26T04:08:14;19.50;99.90
16846;DHT22;8539;53.188;8.696;2023-06-26T04:10:40;19.50;99.90
16846;DHT22;8539;53.188;8.696;2023-06-26T04:13:06;19.60;99.90
16846;DHT22;8539;53.188;8.696;2023-06-26T04:15:32;19.60;99.90
16846;DHT22;8539;53.188;8.696;2023-06-26T04:18:01;19.70;99.90
16846;DHT22;8539;53.188;8.696;2023-06-26T04:20:28;19.70;99.90
16846;DHT22;8539;53.188;8.696;2023-06-26T04:22:54;19.80;99.90
16846;DHT22;8539;53.188;8.696;2023-06-26T04:25:20;19.80;99.90
16846;DHT22;8539;53.188;8.696;2023-06-26T04:27:46;19.90;99.90
16846;DHT22;8539;53.188;8.696;2023-06-26T04:30:13;19.90;99.90
16846;DHT22;8539;53.188;8.696;2023-06-26T04:32:39;20.00;99.90
16846;DHT22;8539;53.188;8.696;2023-06-26T04:35:06;20.10;99.90
16846;DHT22;8539;53.188;8.696;2023-06-26T04:38:01;20.20;99.90
16846;DHT22;8539;53.188;8.696;2023-06-26T04:45:05;20.30;99.90
16846;DHT22;8539;53.188;8.696;2023-06-26T04:48:03;20.50;99.90
16846;DHT22;8539;53.188;8.696;2023-06-26T04:50:32;20.50;99.90
16846;DHT22;8539;53.188;8.696;2023-06-26T04:52:59;20.60;99.90
16846;DHT22;8539;53.188;8.696;2023-06-26T04:55:26;20.70;99.90
16846;DHT22;8539;53.188;8.696;2023-06-26T04:57:52;20.80;99.90
16846;DHT22;8539;53.188;8.696;2023-06-26T05:00:18;21.10;99.90
16846;DHT22;8539;53.188;8.696;2023-06-26T05:02:44;21.30;99.90
16846;DHT22;8539;53.188;8.696;2023-06-26T05:05:11;21.50;99.90
16846;DHT22;8539;53.188;8.696;2023-06-26T05:07:38;21.80;99.90
16846;DHT22;8539;53.188;8.696;2023-06-26T05:10:04;22.00;99.90
16846;DHT22;8539;53.188;8.696;2023-06-26T05:12:30;22.60;99.90
16846;DHT22;8539;53.188;8.696;2023-06-26T05:14:56;22.90;99.90
16846;DHT22;8539;53.188;8.696;2023-06-26T05:17:23;23.10;99.90
16846;DHT22;8539;53.188;8.696;2023-06-26T05:19:49;23.20;99.90
16846;DHT22;8539;53.188;8.696;2023-06-26T05:22:16;23.10;99.90
16846;DHT22;8539;53.188;8.696;2023-06-26T05:24:46;23.00;99.90
16846;DHT22;8539;53.188;8.696;2023-06-26T05:27:13;22.90;99.90
16846;DHT22;8539;53.188;8.696;2023-06-26T05:29:47;22.80;99.90
16846;DHT22;8539;53.188;8.696;2023-06-26T05:32:16;22.60;99.90
16846;DHT22;8539;53.188;8.696;2023-06-26T05:34:48;22.70;99.90
16846;DHT22;8539;53.188;8.696;2023-06-26T05:37:20;22.90;99.90
16846;DHT22;8539;53.188;8.696;2023-06-26T05:39:47;23.10;99.90
16846;DHT22;8539;53.188;8.696;2023-06-26T05:42:14;23.40;99.90
16846;DHT22;8539;53.188;8.696;2023-06-26T05:44:40;23.10;99.90
16846;DHT22;8539;53.188;8.696;2023-06-26T05:47:06;23.10;99.90
16846;DHT22;8539;53.188;8.696;2023-06-26T05:49:33;23.20;99.90
16846;DHT22;8539;53.188;8.696;2023-06-26T05:52:00;23.60;99.90
16846;DHT22;8539;53.188;8.696;2023-06-26T05:54:28;23.90;99.90
16846;DHT22;8539;53.188;8.696;2023-06-26T05:56:57;23.80;99.90
16846;DHT22;8539;53.188;8.696;2023-06-26T05:59:26;23.90;99.90
16846;DHT22;8539;53.188;8.696;2023-06-26T06:01:53;24.00;99.90
16846;DHT22;8539;53.188;8.696;2023-06-26T06:04:19;24.10;99.90
16846;DHT22;8539;53.188;8.696;2023-06-26T06:06:45;24.10;99.90
16846;DHT22;8539;53.188;8.696;2023-06-26T06:09:11;24.20;99.90
16846;DHT22;8539;53.188;8.696;2023-06-26T06:11:37;24.20;99.90
16846;DHT22;8539;53.188;8.696;2023-06-26T06:14:03;24.20;99.90
16846;DHT22;8539;53.188;8.696;2023-06-26T06:16:30;24.20;99.90
16846;DHT22;8539;53.188;8.696;2023-06-26T06:18:56;24.30;99.90
16846;DHT22;8539;53.188;8.696;2023-06-26T06:21:22;24.10;99.90
16846;DHT22;8539;53.188;8.696;2023-06-26T06:23:49;24.10;99.90
16846;DHT22;8539;53.188;8.696;2023-06-26T06:26:16;24.10;99.90
16846;DHT22;8539;53.188;8.696;2023-06-26T06:28:42;24.10;99.90
16846;DHT22;8539;53.188;8.696;2023-06-26T06:31:09;24.00;99.90
16846;DHT22;8539;53.188;8.696;2023-06-26T06:33:34;23.90;99.90
16846;DHT22;8539;53.188;8.696;2023-06-26T06:36:01;23.90;99.90
16846;DHT22;8539;53.188;8.696;2023-06-26T06:38:29;23.90;99.90
16846;DHT22;8539;53.188;8.696;2023-06-26T06:40:55;24.00;99.90
16846;DHT22;8539;53.188;8.696;2023-06-26T06:43:21;24.20;99.90
16846;DHT22;8539;53.188;8.696;2023-06-26T06:45:47;24.30;99.90
16846;DHT22;8539;53.188;8.696;2023-06-26T06:48:13;24.40;99.90
16846;DHT22;8539;53.188;8.696;2023-06-26T06:50:39;24.50;99.90
16846;DHT22;8539;53.188;8.696;2023-06-26T06:53:05;24.50;99.90
16846;DHT22;8539;53.188;8.696;2023-06-26T06:55:31;24.50;99.90
16846;DHT22;8539;53.188;8.696;2023-06-26T06:57:57;24.60;99.90
16846;DHT22;8539;53.188;8.696;2023-06-26T07:00:23;24.60;99.90
16846;DHT22;8539;53.188;8.696;2023-06-26T07:02:50;24.70;99.90
16846;DHT22;8539;53.188;8.696;2023-06-26T07:05:16;24.70;99.90
16846;DHT22;8539;53.188;8.696;2023-06-26T07:07:43;24.60;99.90
16846;DHT22;8539;53.188;8.696;2023-06-26T07:10:11;24.60;99.90
16846;DHT22;8539;53.188;8.696;2023-06-26T07:12:37;24.50;99.90
16846;DHT22;8539;53.188;8.696;2023-06-26T07:15:05;24.50;99.90
16846;DHT22;8539;53.188;8.696;2023-06-26T07:17:32;24.50;99.90
16846;DHT22;8539;53.188;8.696;2023-06-26T07:20:00;24.60;99.90
16846;DHT22;8539;53.188;8.696;2023-06-26T07:22:26;24.70;99.90
16846;DHT22;8539;53.188;8.696;2023-06-26T07:24:53;24.70;99.90
16846;DHT22;8539;53.188;8.696;2023-06-26T07:27:22;24.70;99.90
16846;DHT22;8539;53.188;8.696;2023-06-26T07:29:51;24.70;99.90
16846;DHT22;8539;53.188;8.696;2023-06-26T07:32:21;24.70;99.90
16846;DHT22;8539;53.188;8.696;2023-06-26T07:34:53;24.80;99.90
16846;DHT22;8539;53.188;8.696;2023-06-26T07:37:25;24.90;99.90
16846;DHT22;8539;53.188;8.696;2023-06-26T07:40:04;25.00;99.90
16846;DHT22;8539;53.188;8.696;2023-06-26T07:42:34;25.20;99.90
16846;DHT22;8539;53.188;8.696;2023-06-26T07:47:46;25.40;99.90
16846;DHT22;8539;53.188;8.696;2023-06-26T07:50:15;25.30;99.90
16846;DHT22;8539;53.188;8.696;2023-06-26T07:53:00;25.30;99.90
16846;DHT22;8539;53.188;8.696;2023-06-26T07:55:30;25.30;99.90
16846;DHT22;8539;53.188;8.696;2023-06-26T07:58:25;25.30;99.90
16846;DHT22;8539;53.188;8.696;2023-06-26T08:00:55;25.20;99.90
16846;DHT22;8539;53.188;8.696;2023-06-26T08:03:21;25.00;99.90
16846;DHT22;8539;53.188;8.696;2023-06-26T08:05:47;24.80;99.90
16846;DHT22;8539;53.188;8.696;2023-06-26T08:08:13;24.50;99.90
16846;DHT22;8539;53.188;8.696;2023-06-26T08:10:40;24.40;99.90
16846;DHT22;8539;53.188;8.696;2023-06-26T08:13:06;24.30;99.90
16846;DHT22;8539;53.188;8.696;2023-06-26T08:15:32;24.30;99.90
16846;DHT22;8539;53.188;8.696;2023-06-26T08:17:58;24.20;99.90
16846;DHT22;8539;53.188;8.696;2023-06-26T08:20:24;24.10;99.90
16846;DHT22;8539;53.188;8.696;2023-06-26T08:22:52;24.00;99.90
16846;DHT22;8539;53.188;8.696;2023-06-26T08:25:20;23.80;99.90
16846;DHT22;8539;53.188;8.696;2023-06-26T08:27:46;23.70;99.90
16846;DHT22;8539;53.188;8.696;2023-06-26T08:30:13;23.50;99.90
16846;DHT22;8539;53.188;8.696;2023-06-26T08:32:39;23.20;99.90
16846;DHT22;8539;53.188;8.696;2023-06-26T08:35:07;22.90;99.90
16846;DHT22;8539;53.188;8.696;2023-06-26T08:37:33;22.60;99.90
16846;DHT22;8539;53.188;8.696;2023-06-26T08:40:00;22.30;99.90
16846;DHT22;8539;53.188;8.696;2023-06-26T08:42:28;22.00;99.90
16846;DHT22;8539;53.188;8.696;2023-06-26T08:45:00;21.80;99.90
16846;DHT22;8539;53.188;8.696;2023-06-26T08:47:30;21.70;99.90
16846;DHT22;8539;53.188;8.696;2023-06-26T08:50:13;21.60;99.90
16846;DHT22;8539;53.188;8.696;2023-06-26T08:52:46;21.40;99.90
16846;DHT22;8539;53.188;8.696;2023-06-26T08:55:18;21.30;99.90
16846;DHT22;8539;53.188;8.696;2023-06-26T08:57:45;21.10;99.90
16846;DHT22;8539;53.188;8.696;2023-06-26T09:00:12;21.00;99.90
16846;DHT22;8539;53.188;8.696;2023-06-26T09:02:44;20.90;99.90
16846;DHT22;8539;53.188;8.696;2023-06-26T09:05:11;21.10;99.90
16846;DHT22;8539;53.188;8.696;2023-06-26T09:07:37;20.70;99.90
16846;DHT22;8539;53.188;8.696;2023-06-26T09:10:05;20.70;99.90
16846;DHT22;8539;53.188;8.696;2023-06-26T09:12:31;20.70;99.90
16846;DHT22;8539;53.188;8.696;2023-06-26T09:14:58;20.70;99.90
16846;DHT22;8539;53.188;8.696;2023-06-26T09:17:29;20.70;99.90
16846;DHT22;8539;53.188;8.696;2023-06-26T09:19:56;20.70;99.90
16846;DHT22;8539;53.188;8.696;2023-06-26T09:22:23;20.80;99.90
16846;DHT22;8539;53.188;8.696;2023-06-26T09:24:50;20.80;99.90
16846;DHT22;8539;53.188;8.696;2023-06-26T09:27:17;20.80;99.90
16846;DHT22;8539;53.188;8.696;2023-06-26T09:29:47;20.80;99.90
16846;DHT22;8539;53.188;8.696;2023-06-26T09:32:14;20.90;99.90
16846;DHT22;8539;53.188;8.696;2023-06-26T09:34:42;20.90;99.90
16846;DHT22;8539;53.188;8.696;2023-06-26T09:37:12;21.10;99.90
16846;DHT22;8539;53.188;8.696;2023-06-26T09:39:38;21.30;99.90
16846;DHT22;8539;53.188;8.696;2023-06-26T09:42:04;21.50;99.90
16846;DHT22;8539;53.188;8.696;2023-06-26T09:44:33;21.70;99.90
16846;DHT22;8539;53.188;8.696;2023-06-26T09:47:01;21.80;99.90
16846;DHT22;8539;53.188;8.696;2023-06-26T09:49:29;21.80;99.90
16846;DHT22;8539;53.188;8.696;2023-06-26T09:51:55;21.70;99.90
16846;DHT22;8539;53.188;8.696;2023-06-26T09:54:22;21.80;99.90
16846;DHT22;8539;53.188;8.696;2023-06-26T09:56:49;21.90;99.90
16846;DHT22;8539;53.188;8.696;2023-06-26T09:59:15;21.90;99.90
16846;DHT22;8539;53.188;8.696;2023-06-26T10:01:45;21.90;99.90
16846;DHT22;8539;53.188;8.696;2023-06-26T10:04:12;21.90;99.90
16846;DHT22;8539;53.188;8.696;2023-06-26T10:06:45;22.00;99.90
16846;DHT22;8539;53.188;8.696;2023-06-26T10:09:14;22.00;99.90
16846;DHT22;8539;53.188;8.696;2023-06-26T10:12:02;22.00;99.90
16846;DHT22;8539;53.188;8.696;2023-06-26T10:14:37;22.00;99.90
16846;DHT22;8539;53.188;8.696;2023-06-26T10:17:07;21.90;99.90
16846;DHT22;8539;53.188;8.696;2023-06-26T10:19:35;21.90;99.90
16846;DHT22;8539;53.188;8.696;2023-06-26T10:22:04;22.00;99.90
16846;DHT22;8539;53.188;8.696;2023-06-26T10:24:33;22.30;99.90
16846;DHT22;8539;53.188;8.696;2023-06-26T10:27:14;22.40;99.90
16846;DHT22;8539;53.188;8.696;2023-06-26T10:29:42;22.60;99.90
16846;DHT22;8539;53.188;8.696;2023-06-26T10:32:11;22.70;99.90
16846;DHT22;8539;53.188;8.696;2023-06-26T10:34:38;22.70;99.90
16846;DHT22;8539;53.188;8.696;2023-06-26T10:37:05;22.70;99.90
16846;DHT22;8539;53.188;8.696;2023-06-26T10:39:51;22.70;99.90
16846;DHT22;8539;53.188;8.696;2023-06-26T10:42:19;22.90;99.90
16846;DHT22;8539;53.188;8.696;2023-06-26T10:44:46;23.10;99.90
16846;DHT22;8539;53.188;8.696;2023-06-26T10:47:32;23.20;99.90
16846;DHT22;8539;53.188;8.696;2023-06-26T10:55:27;23.40;99.90
16846;DHT22;8539;53.188;8.696;2023-06-26T10:57:56;23.40;99.90
16846;DHT22;8539;53.188;8.696;2023-06-26T11:01:22;23.30;99.90
16846;DHT22;8539;53.188;8.696;2023-06-26T11:04:00;23.30;99.90
16846;DHT22;8539;53.188;8.696;2023-06-26T11:06:30;23.40;99.90
16846;DHT22;8539;53.188;8.696;2023-06-26T11:09:10;23.40;99.90
16846;DHT22;8539;53.188;8.696;2023-06-26T11:12:01;23.50;99.90
16846;DHT22;8539;53.188;8.696;2023-06-26T11:17:33;23.50;99.90
16846;DHT22;8539;53.188;8.696;2023-06-26T11:20:18;23.70;99.90
16846;DHT22;8539;53.188;8.696;2023-06-26T11:22:56;23.90;99.90
16846;DHT22;8539;53.188;8.696;2023-06-26T11:25:29;24.10;99.90
16846;DHT22;8539;53.188;8.696;2023-06-26T11:27:55;24.10;99.90
16846;DHT22;8539;53.188;8.696;2023-06-26T11:30:50;23.90;99.90
16846;DHT22;8539;53.188;8.696;2023-06-26T11:36:12;23.50;99.90
16846;DHT22;8539;53.188;8.696;2023-06-26T11:38:38;23.50;99.90
16846;DHT22;8539;53.188;8.696;2023-06-26T11:43:38;23.70;99.90
16846;DHT22;8539;53.188;8.696;2023-06-26T11:46:05;23.90;99.90
16846;DHT22;8539;53.188;8.696;2023-06-26T11:48:32;23.90;99.90
16846;DHT22;8539;53.188;8.696;2023-06-26T11:50:58;24.00;99.90
16846;DHT22;8539;53.188;8.696;2023-06-26T11:53:45;24.20;99.90
16846;DHT22;8539;53.188;8.696;2023-06-26T11:56:16;24.20;99.90
16846;DHT22;8539;53.188;8.696;2023-06-26T11:59:14;24.20;99.90
16846;DHT22;8539;53.188;8.696;2023-06-26T12:02:19;24.10;99.90
16846;DHT22;8539;53.188;8.696;2023-06-26T12:05:01;24.10;99.90
16846;DHT22;8539;53.188;8.696;2023-06-26T12:07:30;24.00;99.90
16846;DHT22;8539;53.188;8.696;2023-06-26T12:10:02;24.00;99.90
16846;DHT22;8539;53.188;8.696;2023-06-26T12:12:33;24.10;99.90
16846;DHT22;8539;53.188;8.696;2023-06-26T12:15:15;24.10;99.90
16846;DHT22;8539;53.188;8.696;2023-06-26T12:20:27;23.90;99.90
16846;DHT22;8539;53.188;8.696;2023-06-26T12:22:56;23.80;99.90
16846;DHT22;8539;53.188;8.696;2023-06-26T12:25:23;23.90;99.90
16846;DHT22;8539;53.188;8.696;2023-06-26T12:27:53;24.10;99.90
16846;DHT22;8539;53.188;8.696;2023-06-26T12:30:22;24.10;99.90
16846;DHT22;8539;53.188;8.696;2023-06-26T12:32:53;24.00;99.90
16846;DHT22;8539;53.188;8.696;2023-06-26T12:35:37;23.90;99.90
16846;DHT22;8539;53.188;8.696;2023-06-26T12:38:15;23.80;99.90
16846;DHT22;8539;53.188;8.696;2023-06-26T12:40:46;23.70;99.90
16846;DHT22;8539;53.188;8.696;2023-06-26T12:43:25;23.50;99.90
16846;DHT22;8539;53.188;8.696;2023-06-26T12:45:57;23.50;99.90
16846;DHT22;8539;53.188;8.696;2023-06-26T12:48:43;23.40;99.90
16846;DHT22;8539;53.188;8.696;2023-06-26T12:51:14;23.50;99.90
16846;DHT22;8539;53.188;8.696;2023-06-26T12:53:49;23.60;99.90
16846;DHT22;8539;53.188;8.696;2023-06-26T12:56:19;23.60;99.90
16846;DHT22;8539;53.188;8.696;2023-06-26T12:58:46;23.50;99.90
16846;DHT22;8539;53.188;8.696;2023-06-26T13:01:12;23.40;99.90
16846;DHT22;8539;53.188;8.696;2023-06-26T13:03:43;23.40;99.90
16846;DHT22;8539;53.188;8.696;2023-06-26T13:06:09;23.50;99.90
16846;DHT22;8539;53.188;8.696;2023-06-26T13:08:35;23.60;99.90
16846;DHT22;8539;53.188;8.696;2023-06-26T13:11:09;23.70;99.90
16846;DHT22;8539;53.188;8.696;2023-06-26T13:13:41;23.90;99.90
16846;DHT22;8539;53.188;8.696;2023-06-26T13:16:13;23.90;99.90
16846;DHT22;8539;53.188;8.696;2023-06-26T13:18:48;23.90;99.90
16846;DHT22;8539;53.188;8.696;2023-06-26T13:21:18;23.90;99.90
16846;DHT22;8539;53.188;8.696;2023-06-26T13:23:47;24.00;99.90
16846;DHT22;8539;53.188;8.696;2023-06-26T13:26:13;23.80;99.90
16846;DHT22;8539;53.188;8.696;2023-06-26T13:28:39;23.70;99.90
16846;DHT22;8539;53.188;8.696;2023-06-26T13:31:05;23.80;99.90
16846;DHT22;8539;53.188;8.696;2023-06-26T13:33:32;23.80;99.90
16846;DHT22;8539;53.188;8.696;2023-06-26T13:35:58;23.90;99.90
16846;DHT22;8539;53.188;8.696;2023-06-26T13:38:25;23.90;99.90
16846;DHT22;8539;53.188;8.696;2023-06-26T13:40:55;23.80;99.90
16846;DHT22;8539;53.188;8.696;2023-06-26T13:43:29;23.80;99.90
16846;DHT22;8539;53.188;8.696;2023-06-26T13:46:50;23.70;99.90
16846;DHT22;8539;53.188;8.696;2023-06-26T13:49:16;23.60;99.90
16846;DHT22;8539;53.188;8.696;2023-06-26T13:52:10;23.50;99.90
16846;DHT22;8539;53.188;8.696;2023-06-26T13:54:41;23.40;99.90
16846;DHT22;8539;53.188;8.696;2023-06-26T13:59:59;23.30;99.90
16846;DHT22;8539;53.188;8.696;2023-06-26T14:18:11;23.00;99.90
16846;DHT22;8539;53.188;8.696;2023-06-26T14:20:56;22.90;99.90
16846;DHT22;8539;53.188;8.696;2023-06-26T14:26:50;22.70;99.90
16846;DHT22;8539;53.188;8.696;2023-06-26T14:29:16;22.60;99.90
16846;DHT22;8539;53.188;8.696;2023-06-26T14:31:44;22.60;99.90
16846;DHT22;8539;53.188;8.696;2023-06-26T14:34:10;22.60;99.90
16846;DHT22;8539;53.188;8.696;2023-06-26T14:36:36;22.60;99.90
16846;DHT22;8539;53.188;8.696;2023-06-26T14:39:57;22.60;99.90
16846;DHT22;8539;53.188;8.696;2023-06-26T14:42:55;22.50;99.90
16846;DHT22;8539;53.188;8.696;2023-06-26T14:45:30;22.50;99.90
16846;DHT22;8539;53.188;8.696;2023-06-26T14:48:08;22.50;99.90
16846;DHT22;8539;53.188;8.696;2023-06-26T14:50:37;22.50;99.90
16846;DHT22;8539;53.188;8.696;2023-06-26T14:53:03;22.50;99.90
16846;DHT22;8539;53.188;8.696;2023-06-26T14:55:29;22.50;99.90
16846;DHT22;8539;53.188;8.696;2023-06-26T14:57:55;22.40;99.90
16846;DHT22;8539;53.188;8.696;2023-06-26T15:00:33;22.30;99.90
16846;DHT22;8539;53.188;8.696;2023-06-26T15:03:00;22.30;99.90
16846;DHT22;8539;53.188;8.696;2023-06-26T15:05:26;22.30;99.90
16846;DHT22;8539;53.188;8.696;2023-06-26T15:07:53;22.20;99.90
16846;DHT22;8539;53.188;8.696;2023-06-26T15:10:18;22.20;99.90
16846;DHT22;8539;53.188;8.696;2023-06-26T15:12:45;22.10;99.90
16846;DHT22;8539;53.188;8.696;2023-06-26T15:15:11;22.10;99.90
16846;DHT22;8539;53.188;8.696;2023-06-26T15:17:37;22.10;99.90
16846;DHT22;8539;53.188;8.696;2023-06-26T15:20:04;22.10;99.90
16846;DHT22;8539;53.188;8.696;2023-06-26T15:22:31;22.00;99.90
16846;DHT22;8539;53.188;8.696;2023-06-26T15:24:57;22.00;99.90
16846;DHT22;8539;53.188;8.696;2023-06-26T15:27:23;22.00;99.90
16846;DHT22;8539;53.188;8.696;2023-06-26T15:29:50;22.00;99.90
16846;DHT22;8539;53.188;8.696;2023-06-26T15:32:44;22.00;99.90
16846;DHT22;8539;53.188;8.696;2023-06-26T15:35:17;22.00;99.90
16846;DHT22;8539;53.188;8.696;2023-06-26T15:37:53;22.10;99.90
16846;DHT22;8539;53.188;8.696;2023-06-26T15:40:31;22.10;99.90
16846;DHT22;8539;53.188;8.696;2023-06-26T15:43:36;22.20;99.90
16846;DHT22;8539;53.188;8.696;2023-06-26T15:46:06;22.30;99.90
16846;DHT22;8539;53.188;8.696;2023-06-26T15:48:52;22.30;99.90
16846;DHT22;8539;53.188;8.696;2023-06-26T15:51:21;22.30;99.90
16846;DHT22;8539;53.188;8.696;2023-06-26T15:53:50;22.30;99.90
16846;DHT22;8539;53.188;8.696;2023-06-26T15:56:19;22.20;99.90
16846;DHT22;8539;53.188;8.696;2023-06-26T15:58:50;22.10;99.70
16846;DHT22;8539;53.188;8.696;2023-06-26T16:01:27;22.00;99.60
16846;DHT22;8539;53.188;8.696;2023-06-26T16:04:17;21.90;99.60
16846;DHT22;8539;53.188;8.696;2023-06-26T16:10:38;21.90;99.50
16846;DHT22;8539;53.188;8.696;2023-06-26T16:13:07;22.00;99.50
16846;DHT22;8539;53.188;8.696;2023-06-26T16:15:33;22.00;99.60
16846;DHT22;8539;53.188;8.696;2023-06-26T16:18:00;22.00;99.60
16846;DHT22;8539;53.188;8.696;2023-06-26T16:20:26;22.00;99.70
16846;DHT22;8539;53.188;8.696;2023-06-26T16:22:53;21.90;99.70
16846;DHT22;8539;53.188;8.696;2023-06-26T16:25:22;21.90;99.70
16846;DHT22;8539;53.188;8.696;2023-06-26T16:27:48;21.90;99.70
16846;DHT22;8539;53.188;8.696;2023-06-26T16:30:17;22.00;99.80
16846;DHT22;8539;53.188;8.696;2023-06-26T16:32:49;22.00;99.80
16846;DHT22;8539;53.188;8.696;2023-06-26T16:35:16;22.10;99.80
16846;DHT22;8539;53.188;8.696;2023-06-26T16:37:50;22.10;99.90
16846;DHT22;8539;53.188;8.696;2023-06-26T16:40:49;22.10;99.90
16846;DHT22;8539;53.188;8.696;2023-06-26T16:43:33;22.10;99.90
16846;DHT22;8539;53.188;8.696;2023-06-26T16:46:09;22.00;99.90
16846;DHT22;8539;53.188;8.696;2023-06-26T16:48:35;22.00;99.90
16846;DHT22;8539;53.188;8.696;2023-06-26T16:51:01;22.00;99.90
16846;DHT22;8539;53.188;8.696;2023-06-26T16:53:30;22.00;99.90
16846;DHT22;8539;53.188;8.696;2023-06-26T16:56:18;21.90;99.90
16846;DHT22;8539;53.188;8.696;2023-06-26T17:01:36;21.80;99.90
16846;DHT22;8539;53.188;8.696;2023-06-26T17:04:02;21.70;99.90
16846;DHT22;8539;53.188;8.696;2023-06-26T17:06:28;21.50;99.90